sensor_id;sensor_type;location;lat;lon;timestamp;pressure;altitude;pressure_sealevel;temperature;humidity
45071;BME280;30836;48.906;9.140;2023-02-14T00:00:05;1004.90;;;9.67;45.66
45071;BME280;30836;48.906;9.140;2023-02-14T00:01:07;1004.88;;;9.66;45.63
45071;BME280;30836;48.906;9.140;2023-02-14T00:02:08;1004.92;;;9.67;45.67
45071;BME280;30836;48.906;9.140;2023-02-14T00:03:09;1004.88;;;9.65;45.68
45071;BME280;30836;48.906;9.140;2023-02-14T00:04:09;1004.84;;;9.60;45.66
45071;BME280;30836;48.906;9.140;2023-02-14T00:05:10;1004.84;;;9.57;45.72
45071;BME280;30836;48.906;9.140;2023-02-14T00:06:11;1004.84;;;9.56;45.77
45071;BME280;30836;48.906;9.140;2023-02-14T00:07:13;1004.82;;;9.53;45.72
45071;BME280;30836;48.906;9.140;2023-02-14T00:08:14;1004.80;;;9.52;45.78
45071;BME280;30836;48.906;9.140;2023-02-14T00:09:18;1004.78;;;9.50;45.86
45071;BME280;30836;48.906;9.140;2023-02-14T00:10:18;1004.76;;;9.49;45.87
45071;BME280;30836;48.906;9.140;2023-02-14T00:11:19;1004.76;;;9.49;45.85
45071;BME280;30836;48.906;9.140;2023-02-14T00:12:20;1004.76;;;9.47;45.99
45071;BME280;30836;48.906;9.140;2023-02-14T00:13:20;1004.76;;;9.45;46.00
45071;BME280;30836;48.906;9.140;2023-02-14T00:14:21;1004.76;;;9.43;46.03
45071;BME280;30836;48.906;9.140;2023-02-14T00:15:21;1004.74;;;9.41;46.14
45071;BME280;30836;48.906;9.140;2023-02-14T00:16:21;1004.76;;;9.38;46.21
45071;BME280;30836;48.906;9.140;2023-02-14T00:17:22;1004.76;;;9.34;46.32
45071;BME280;30836;48.906;9.140;2023-02-14T00:18:22;1004.80;;;9.31;46.44
45071;BME280;30836;48.906;9.140;2023-02-14T00:19:23;1004.78;;;9.21;46.83
45071;BME280;30836;48.906;9.140;2023-02-14T00:20:24;1004.78;;;9.11;46.91
45071;BME280;30836;48.906;9.140;2023-02-14T00:21:26;1004.80;;;9.11;46.88
45071;BME280;30836;48.906;9.140;2023-02-14T00:22:26;1004.82;;;9.14;46.71
45071;BME280;30836;48.906;9.140;2023-02-14T00:23:27;1004.82;;;9.19;46.58
45071;BME280;30836;48.906;9.140;2023-02-14T00:24:27;1004.80;;;9.23;46.50
45071;BME280;30836;48.906;9.140;2023-02-14T00:25:27;1004.80;;;9.25;46.44
45071;BME280;30836;48.906;9.140;2023-02-14T00:26:28;1004.82;;;9.28;46.40
45071;BME280;30836;48.906;9.140;2023-02-14T00:27:29;1004.82;;;9.31;46.31
45071;BME280;30836;48.906;9.140;2023-02-14T00:28:29;1004.84;;;9.33;46.28
45071;BME280;30836;48.906;9.140;2023-02-14T00:29:30;1004.82;;;9.33;46.27
45071;BME280;30836;48.906;9.140;2023-02-14T00:30:33;1004.82;;;9.34;46.19
45071;BME280;30836;48.906;9.140;2023-02-14T00:31:33;1004.82;;;9.35;46.12
45071;BME280;30836;48.906;9.140;2023-02-14T00:32:36;1004.84;;;9.36;46.09
45071;BME280;30836;48.906;9.140;2023-02-14T00:33:37;1004.84;;;9.36;45.97
45071;BME280;30836;48.906;9.140;2023-02-14T00:34:39;1004.86;;;9.37;45.99
45071;BME280;30836;48.906;9.140;2023-02-14T00:35:39;1004.86;;;9.36;46.04
45071;BME280;30836;48.906;9.140;2023-02-14T00:36:40;1004.86;;;9.36;46.06
45071;BME280;30836;48.906;9.140;2023-02-14T00:37:41;1004.84;;;9.35;46.04
45071;BME280;30836;48.906;9.140;2023-02-14T00:38:42;1004.82;;;9.36;46.02
45071;BME280;30836;48.906;9.140;2023-02-14T00:39:42;1004.82;;;9.35;45.97
45071;BME280;30836;48.906;9.140;2023-02-14T00:40:42;1004.80;;;9.33;46.01
45071;BME280;30836;48.906;9.140;2023-02-14T00:41:43;1004.80;;;9.33;46.03
45071;BME280;30836;48.906;9.140;2023-02-14T00:42:44;1004.78;;;9.35;46.01
45071;BME280;30836;48.906;9.140;2023-02-14T00:43:48;1004.78;;;9.37;45.96
45071;BME280;30836;48.906;9.140;2023-02-14T00:44:50;1004.76;;;9.39;45.90
45071;BME280;30836;48.906;9.140;2023-02-14T00:45:50;1004.80;;;9.41;45.87
45071;BME280;30836;48.906;9.140;2023-02-14T00:46:51;1004.78;;;9.43;45.69
45071;BME280;30836;48.906;9.140;2023-02-14T00:47:51;1004.76;;;9.43;45.67
45071;BME280;30836;48.906;9.140;2023-02-14T00:48:52;1004.76;;;9.40;45.79
45071;BME280;30836;48.906;9.140;2023-02-14T00:49:52;1004.76;;;9.37;45.85
45071;BME280;30836;48.906;9.140;2023-02-14T00:50:53;1004.74;;;9.37;45.83
45071;BME280;30836;48.906;9.140;2023-02-14T00:51:53;1004.76;;;9.32;46.07
45071;BME280;30836;48.906;9.140;2023-02-14T00:52:54;1004.76;;;9.20;46.21
45071;BME280;30836;48.906;9.140;2023-02-14T00:53:54;1004.80;;;9.11;46.42
45071;BME280;30836;48.906;9.140;2023-02-14T00:54:55;1004.80;;;9.11;46.34
45071;BME280;30836;48.906;9.140;2023-02-14T00:55:55;1004.82;;;9.13;46.39
45071;BME280;30836;48.906;9.140;2023-02-14T00:56:56;1004.82;;;9.12;46.39
45071;BME280;30836;48.906;9.140;2023-02-14T00:57:56;1004.84;;;9.08;46.47
45071;BME280;30836;48.906;9.140;2023-02-14T00:58:57;1004.80;;;9.00;46.77
45071;BME280;30836;48.906;9.140;2023-02-14T00:59:57;1004.80;;;8.96;46.79
45071;BME280;30836;48.906;9.140;2023-02-14T01:00:58;1004.82;;;8.97;46.75
45071;BME280;30836;48.906;9.140;2023-02-14T01:01:58;1004.82;;;8.97;46.63
45071;BME280;30836;48.906;9.140;2023-02-14T01:02:59;1004.80;;;8.98;46.56
45071;BME280;30836;48.906;9.140;2023-02-14T01:03:59;1004.80;;;9.00;46.54
45071;BME280;30836;48.906;9.140;2023-02-14T01:05:00;1004.84;;;9.00;46.55
45071;BME280;30836;48.906;9.140;2023-02-14T01:06:00;1004.80;;;9.00;46.63
45071;BME280;30836;48.906;9.140;2023-02-14T01:07:01;1004.84;;;9.00;46.58
45071;BME280;30836;48.906;9.140;2023-02-14T01:08:02;1004.82;;;9.00;46.61
45071;BME280;30836;48.906;9.140;2023-02-14T01:09:02;1004.82;;;8.98;46.75
45071;BME280;30836;48.906;9.140;2023-02-14T01:10:03;1004.82;;;8.97;46.75
45071;BME280;30836;48.906;9.140;2023-02-14T01:12:11;1004.78;;;9.00;46.65
45071;BME280;30836;48.906;9.140;2023-02-14T01:13:12;1004.80;;;9.01;46.64
45071;BME280;30836;48.906;9.140;2023-02-14T01:14:13;1004.80;;;9.04;46.58
45071;BME280;30836;48.906;9.140;2023-02-14T01:15:14;1004.80;;;9.07;46.49
45071;BME280;30836;48.906;9.140;2023-02-14T01:16:15;1004.78;;;9.09;46.49
45071;BME280;30836;48.906;9.140;2023-02-14T01:17:18;1004.80;;;9.08;46.54
45071;BME280;30836;48.906;9.140;2023-02-14T01:18:18;1004.82;;;9.04;46.50
45071;BME280;30836;48.906;9.140;2023-02-14T01:19:18;1004.80;;;9.02;46.36
45071;BME280;30836;48.906;9.140;2023-02-14T01:20:19;1004.82;;;8.95;46.79
45071;BME280;30836;48.906;9.140;2023-02-14T01:21:24;1004.82;;;8.79;47.00
45071;BME280;30836;48.906;9.140;2023-02-14T01:22:26;1004.82;;;8.65;47.62
45071;BME280;30836;48.906;9.140;2023-02-14T01:23:27;1004.82;;;8.60;47.58
45071;BME280;30836;48.906;9.140;2023-02-14T01:24:27;1004.84;;;8.62;47.38
45071;BME280;30836;48.906;9.140;2023-02-14T01:25:28;1004.82;;;8.64;47.28
45071;BME280;30836;48.906;9.140;2023-02-14T01:26:29;1004.80;;;8.60;47.71
45071;BME280;30836;48.906;9.140;2023-02-14T01:27:30;1004.80;;;8.55;47.72
45071;BME280;30836;48.906;9.140;2023-02-14T01:28:30;1004.80;;;8.55;47.68
45071;BME280;30836;48.906;9.140;2023-02-14T01:29:30;1004.80;;;8.56;47.64
45071;BME280;30836;48.906;9.140;2023-02-14T01:30:31;1004.80;;;8.59;47.57
45071;BME280;30836;48.906;9.140;2023-02-14T01:31:32;1004.76;;;8.64;47.46
45071;BME280;30836;48.906;9.140;2023-02-14T01:32:34;1004.76;;;8.73;47.23
45071;BME280;30836;48.906;9.140;2023-02-14T01:33:35;1004.72;;;8.88;46.77
45071;BME280;30836;48.906;9.140;2023-02-14T01:34:35;1004.72;;;9.08;46.20
45071;BME280;30836;48.906;9.140;2023-02-14T01:35:36;1004.74;;;9.25;45.89
45071;BME280;30836;48.906;9.140;2023-02-14T01:36:37;1004.72;;;9.38;45.52
45071;BME280;30836;48.906;9.140;2023-02-14T01:37:39;1004.72;;;9.46;45.25
45071;BME280;30836;48.906;9.140;2023-02-14T01:38:39;1004.72;;;9.48;45.24
45071;BME280;30836;48.906;9.140;2023-02-14T01:39:40;1004.70;;;9.50;45.29
45071;BME280;30836;48.906;9.140;2023-02-14T01:40:41;1004.72;;;9.58;45.10
45071;BME280;30836;48.906;9.140;2023-02-14T01:41:43;1004.74;;;9.66;44.91
45071;BME280;30836;48.906;9.140;2023-02-14T01:42:45;1004.74;;;9.72;44.78
45071;BME280;30836;48.906;9.140;2023-02-14T01:42:55;1004.76;;;9.83;44.73
45071;BME280;30836;48.906;9.140;2023-02-14T01:43:59;1004.76;;;9.83;44.56
45071;BME280;30836;48.906;9.140;2023-02-14T01:45:06;1004.76;;;9.77;44.70
45071;BME280;30836;48.906;9.140;2023-02-14T01:46:12;1004.74;;;9.68;44.95
45071;BME280;30836;48.906;9.140;2023-02-14T01:47:12;1004.74;;;9.60;45.06
45071;BME280;30836;48.906;9.140;2023-02-14T01:48:13;1004.72;;;9.53;45.22
45071;BME280;30836;48.906;9.140;2023-02-14T01:49:17;1004.72;;;9.48;45.28
45071;BME280;30836;48.906;9.140;2023-02-14T01:50:22;1004.72;;;9.45;45.34
45071;BME280;30836;48.906;9.140;2023-02-14T01:51:27;1004.74;;;9.50;45.01
45071;BME280;30836;48.906;9.140;2023-02-14T01:52:32;1004.72;;;9.61;44.72
45071;BME280;30836;48.906;9.140;2023-02-14T01:53:35;1004.72;;;9.71;44.46
45071;BME280;30836;48.906;9.140;2023-02-14T01:54:37;1004.74;;;9.80;44.27
45071;BME280;30836;48.906;9.140;2023-02-14T01:55:43;1004.74;;;9.87;44.06
45071;BME280;30836;48.906;9.140;2023-02-14T01:56:48;1004.74;;;9.93;43.94
45071;BME280;30836;48.906;9.140;2023-02-14T01:57:57;1004.74;;;9.99;43.79
45071;BME280;30836;48.906;9.140;2023-02-14T01:59:04;1004.72;;;10.04;43.72
45071;BME280;30836;48.906;9.140;2023-02-14T02:00:07;1004.74;;;10.08;43.61
45071;BME280;30836;48.906;9.140;2023-02-14T02:00:18;1004.74;;;10.12;43.60
45071;BME280;30836;48.906;9.140;2023-02-14T02:01:20;1004.74;;;10.12;43.54
45071;BME280;30836;48.906;9.140;2023-02-14T02:02:22;1004.74;;;10.06;43.65
45071;BME280;30836;48.906;9.140;2023-02-14T02:03:23;1004.72;;;9.91;44.01
45071;BME280;30836;48.906;9.140;2023-02-14T02:04:31;1004.72;;;9.74;44.37
45071;BME280;30836;48.906;9.140;2023-02-14T02:05:43;1004.76;;;9.62;44.57
45071;BME280;30836;48.906;9.140;2023-02-14T02:06:50;1004.76;;;9.55;44.71
45071;BME280;30836;48.906;9.140;2023-02-14T02:07:55;1004.80;;;9.56;44.49
45071;BME280;30836;48.906;9.140;2023-02-14T02:09:01;1004.84;;;9.65;44.22
45071;BME280;30836;48.906;9.140;2023-02-14T02:10:03;1004.82;;;9.76;43.90
45071;BME280;30836;48.906;9.140;2023-02-14T02:11:05;1004.84;;;9.86;43.66
45071;BME280;30836;48.906;9.140;2023-02-14T02:12:05;1004.84;;;9.93;43.41
45071;BME280;30836;48.906;9.140;2023-02-14T02:13:06;1004.82;;;9.97;43.38
45071;BME280;30836;48.906;9.140;2023-02-14T02:14:11;1004.84;;;10.01;43.26
45071;BME280;30836;48.906;9.140;2023-02-14T02:15:13;1004.86;;;10.05;43.20
45071;BME280;30836;48.906;9.140;2023-02-14T02:16:20;1004.84;;;10.10;43.13
45071;BME280;30836;48.906;9.140;2023-02-14T02:41:37;1004.70;;;10.24;42.23
45071;BME280;30836;48.906;9.140;2023-02-14T02:42:52;1004.70;;;10.25;42.17
45071;BME280;30836;48.906;9.140;2023-02-14T02:43:55;1004.72;;;10.25;42.17
45071;BME280;30836;48.906;9.140;2023-02-14T02:46:11;1004.72;;;10.24;42.15
45071;BME280;30836;48.906;9.140;2023-02-14T02:48:33;1004.68;;;10.17;42.25
45071;BME280;30836;48.906;9.140;2023-02-14T02:50:49;1004.72;;;10.14;42.23
45071;BME280;30836;48.906;9.140;2023-02-14T02:51:55;1004.72;;;10.13;42.25
45071;BME280;30836;48.906;9.140;2023-02-14T02:53:02;1004.72;;;10.11;42.30
45071;BME280;30836;48.906;9.140;2023-02-14T02:54:07;1004.76;;;10.09;42.33
45071;BME280;30836;48.906;9.140;2023-02-14T02:56:45;1004.74;;;10.00;42.54
45071;BME280;30836;48.906;9.140;2023-02-14T02:57:50;1004.72;;;9.91;42.83
45071;BME280;30836;48.906;9.140;2023-02-14T02:59:12;1004.72;;;9.80;43.08
45071;BME280;30836;48.906;9.140;2023-02-14T03:00:03;1004.70;;;9.76;43.09
45071;BME280;30836;48.906;9.140;2023-02-14T03:01:11;1004.68;;;9.77;42.97
45071;BME280;30836;48.906;9.140;2023-02-14T03:03:18;1004.70;;;9.83;42.88
45071;BME280;30836;48.906;9.140;2023-02-14T03:04:22;1004.68;;;9.85;42.81
45071;BME280;30836;48.906;9.140;2023-02-14T03:05:25;1004.67;;;9.88;42.79
45071;BME280;30836;48.906;9.140;2023-02-14T03:06:28;1004.68;;;9.91;42.75
45071;BME280;30836;48.906;9.140;2023-02-14T03:07:32;1004.70;;;9.94;42.66
45071;BME280;30836;48.906;9.140;2023-02-14T03:08:34;1004.72;;;9.97;42.65
45071;BME280;30836;48.906;9.140;2023-02-14T03:10:36;1004.74;;;10.01;42.62
45071;BME280;30836;48.906;9.140;2023-02-14T03:11:39;1004.74;;;10.02;42.58
45071;BME280;30836;48.906;9.140;2023-02-14T03:16:23;1004.76;;;9.99;42.65
45071;BME280;30836;48.906;9.140;2023-02-14T03:19:56;1004.80;;;9.99;42.54
45071;BME280;30836;48.906;9.140;2023-02-14T03:22:30;1004.82;;;9.97;42.51
45071;BME280;30836;48.906;9.140;2023-02-14T03:23:20;1004.82;;;9.95;42.56
45071;BME280;30836;48.906;9.140;2023-02-14T03:27:50;1004.78;;;9.85;42.46
45071;BME280;30836;48.906;9.140;2023-02-14T03:31:22;1004.78;;;9.83;42.27
45071;BME280;30836;48.906;9.140;2023-02-14T03:38:21;1004.80;;;9.73;42.44
45071;BME280;30836;48.906;9.140;2023-02-14T03:40:41;1004.82;;;9.69;42.49
45071;BME280;30836;48.906;9.140;2023-02-14T03:41:51;1004.80;;;9.70;42.48
45071;BME280;30836;48.906;9.140;2023-02-14T03:44:07;1004.80;;;9.70;42.49
45071;BME280;30836;48.906;9.140;2023-02-14T03:45:11;1004.78;;;9.70;42.47
45071;BME280;30836;48.906;9.140;2023-02-14T03:47:31;1004.74;;;9.69;42.54
45071;BME280;30836;48.906;9.140;2023-02-14T03:48:35;1004.76;;;9.69;42.52
45071;BME280;30836;48.906;9.140;2023-02-14T03:49:40;1004.74;;;9.70;42.49
45071;BME280;30836;48.906;9.140;2023-02-14T03:50:47;1004.72;;;9.70;42.53
45071;BME280;30836;48.906;9.140;2023-02-14T03:51:51;1004.72;;;9.70;42.55
45071;BME280;30836;48.906;9.140;2023-02-14T03:52:54;1004.70;;;9.71;42.49
45071;BME280;30836;48.906;9.140;2023-02-14T03:53:57;1004.72;;;9.72;42.48
45071;BME280;30836;48.906;9.140;2023-02-14T03:54:58;1004.68;;;9.73;42.47
45071;BME280;30836;48.906;9.140;2023-02-14T03:57:18;1004.65;;;9.74;42.46
45071;BME280;30836;48.906;9.140;2023-02-14T03:58:25;1004.63;;;9.74;42.44
45071;BME280;30836;48.906;9.140;2023-02-14T03:59:30;1004.61;;;9.75;42.39
45071;BME280;30836;48.906;9.140;2023-02-14T04:00:30;1004.59;;;9.76;42.37
45071;BME280;30836;48.906;9.140;2023-02-14T04:01:36;1004.59;;;9.78;42.30
45071;BME280;30836;48.906;9.140;2023-02-14T04:02:42;1004.57;;;9.79;42.28
45071;BME280;30836;48.906;9.140;2023-02-14T04:03:46;1004.57;;;9.80;42.25
45071;BME280;30836;48.906;9.140;2023-02-14T04:04:49;1004.63;;;9.80;42.23
45071;BME280;30836;48.906;9.140;2023-02-14T04:05:52;1004.63;;;9.81;42.22
45071;BME280;30836;48.906;9.140;2023-02-14T04:06:53;1004.63;;;9.83;42.17
45071;BME280;30836;48.906;9.140;2023-02-14T04:07:54;1004.61;;;9.84;42.16
45071;BME280;30836;48.906;9.140;2023-02-14T04:08:06;1004.61;;;9.84;42.17
45071;BME280;30836;48.906;9.140;2023-02-14T04:09:07;1004.61;;;9.83;42.21
45071;BME280;30836;48.906;9.140;2023-02-14T04:10:07;1004.61;;;9.77;42.44
45071;BME280;30836;48.906;9.140;2023-02-14T04:11:09;1004.61;;;9.66;42.66
45071;BME280;30836;48.906;9.140;2023-02-14T04:12:09;1004.61;;;9.55;42.88
45071;BME280;30836;48.906;9.140;2023-02-14T04:13:10;1004.59;;;9.44;43.13
45071;BME280;30836;48.906;9.140;2023-02-14T04:14:11;1004.61;;;9.34;43.29
45071;BME280;30836;48.906;9.140;2023-02-14T04:15:12;1004.61;;;9.25;43.49
45071;BME280;30836;48.906;9.140;2023-02-14T04:16:13;1004.61;;;9.19;43.61
45071;BME280;30836;48.906;9.140;2023-02-14T04:17:14;1004.61;;;9.21;43.51
45071;BME280;30836;48.906;9.140;2023-02-14T04:18:14;1004.63;;;9.26;43.34
45071;BME280;30836;48.906;9.140;2023-02-14T04:19:15;1004.61;;;9.32;43.23
45071;BME280;30836;48.906;9.140;2023-02-14T04:20:15;1004.63;;;9.38;43.09
45071;BME280;30836;48.906;9.140;2023-02-14T04:21:16;1004.63;;;9.44;43.01
45071;BME280;30836;48.906;9.140;2023-02-14T04:22:16;1004.61;;;9.49;42.94
45071;BME280;30836;48.906;9.140;2023-02-14T04:23:17;1004.65;;;9.50;42.94
45071;BME280;30836;48.906;9.140;2023-02-14T04:24:18;1004.65;;;9.49;43.03
45071;BME280;30836;48.906;9.140;2023-02-14T04:25:19;1004.65;;;9.50;42.94
45071;BME280;30836;48.906;9.140;2023-02-14T04:26:21;1004.63;;;9.52;42.86
45071;BME280;30836;48.906;9.140;2023-02-14T04:27:21;1004.67;;;9.54;42.81
45071;BME280;30836;48.906;9.140;2023-02-14T04:28:22;1004.67;;;9.55;42.82
45071;BME280;30836;48.906;9.140;2023-02-14T04:29:22;1004.67;;;9.54;42.87
45071;BME280;30836;48.906;9.140;2023-02-14T04:30:23;1004.65;;;9.52;42.91
45071;BME280;30836;48.906;9.140;2023-02-14T04:31:23;1004.65;;;9.49;42.87
45071;BME280;30836;48.906;9.140;2023-02-14T04:32:23;1004.65;;;9.50;42.80
45071;BME280;30836;48.906;9.140;2023-02-14T04:33:25;1004.63;;;9.51;42.76
45071;BME280;30836;48.906;9.140;2023-02-14T04:34:26;1004.63;;;9.52;42.69
45071;BME280;30836;48.906;9.140;2023-02-14T04:35:26;1004.67;;;9.54;42.66
45071;BME280;30836;48.906;9.140;2023-02-14T04:36:26;1004.65;;;9.57;42.63
45071;BME280;30836;48.906;9.140;2023-02-14T04:37:27;1004.63;;;9.54;42.74
45071;BME280;30836;48.906;9.140;2023-02-14T04:38:27;1004.61;;;9.44;43.11
45071;BME280;30836;48.906;9.140;2023-02-14T04:39:28;1004.59;;;9.30;43.46
45071;BME280;30836;48.906;9.140;2023-02-14T04:40:28;1004.57;;;9.18;43.71
45071;BME280;30836;48.906;9.140;2023-02-14T04:41:29;1004.57;;;9.05;43.99
45071;BME280;30836;48.906;9.140;2023-02-14T04:42:29;1004.57;;;8.92;44.33
45071;BME280;30836;48.906;9.140;2023-02-14T04:43:30;1004.55;;;8.83;44.49
45071;BME280;30836;48.906;9.140;2023-02-14T04:44:30;1004.55;;;8.75;44.63
45071;BME280;30836;48.906;9.140;2023-02-14T04:45:31;1004.57;;;8.69;44.75
45071;BME280;30836;48.906;9.140;2023-02-14T04:46:31;1004.55;;;8.63;44.79
45071;BME280;30836;48.906;9.140;2023-02-14T04:47:32;1004.59;;;8.57;44.91
45071;BME280;30836;48.906;9.140;2023-02-14T04:48:32;1004.59;;;8.52;45.02
45071;BME280;30836;48.906;9.140;2023-02-14T04:49:33;1004.59;;;8.46;45.16
45071;BME280;30836;48.906;9.140;2023-02-14T04:50:34;1004.61;;;8.41;45.21
45071;BME280;30836;48.906;9.140;2023-02-14T04:51:34;1004.57;;;8.36;45.35
45071;BME280;30836;48.906;9.140;2023-02-14T04:52:35;1004.61;;;8.32;45.44
45071;BME280;30836;48.906;9.140;2023-02-14T04:53:35;1004.59;;;8.30;45.43
45071;BME280;30836;48.906;9.140;2023-02-14T04:54:36;1004.59;;;8.28;45.42
45071;BME280;30836;48.906;9.140;2023-02-14T04:55:36;1004.59;;;8.27;45.41
45071;BME280;30836;48.906;9.140;2023-02-14T04:56:37;1004.59;;;8.25;45.49
45071;BME280;30836;48.906;9.140;2023-02-14T04:57:37;1004.59;;;8.23;45.58
45071;BME280;30836;48.906;9.140;2023-02-14T04:58:38;1004.57;;;8.21;45.66
45071;BME280;30836;48.906;9.140;2023-02-14T04:59:38;1004.57;;;8.20;45.68
45071;BME280;30836;48.906;9.140;2023-02-14T05:00:38;1004.59;;;8.18;45.79
45071;BME280;30836;48.906;9.140;2023-02-14T05:01:39;1004.59;;;8.17;45.86
45071;BME280;30836;48.906;9.140;2023-02-14T05:02:40;1004.59;;;8.16;45.93
45071;BME280;30836;48.906;9.140;2023-02-14T05:03:40;1004.59;;;8.14;46.01
45071;BME280;30836;48.906;9.140;2023-02-14T05:04:41;1004.61;;;8.12;46.07
45071;BME280;30836;48.906;9.140;2023-02-14T05:05:41;1004.59;;;8.10;46.03
45071;BME280;30836;48.906;9.140;2023-02-14T05:06:42;1004.57;;;8.09;46.08
45071;BME280;30836;48.906;9.140;2023-02-14T05:07:42;1004.57;;;8.09;46.10
45071;BME280;30836;48.906;9.140;2023-02-14T05:08:43;1004.55;;;8.08;46.21
45071;BME280;30836;48.906;9.140;2023-02-14T05:09:43;1004.53;;;8.05;46.20
45071;BME280;30836;48.906;9.140;2023-02-14T05:10:44;1004.53;;;8.06;46.16
45071;BME280;30836;48.906;9.140;2023-02-14T05:11:44;1004.51;;;8.07;46.11
45071;BME280;30836;48.906;9.140;2023-02-14T05:12:44;1004.55;;;8.08;46.10
45071;BME280;30836;48.906;9.140;2023-02-14T05:13:45;1004.53;;;8.08;46.11
45071;BME280;30836;48.906;9.140;2023-02-14T05:14:45;1004.55;;;8.04;46.20
45071;BME280;30836;48.906;9.140;2023-02-14T05:15:46;1004.55;;;7.99;46.34
45071;BME280;30836;48.906;9.140;2023-02-14T05:16:46;1004.53;;;7.96;46.44
45071;BME280;30836;48.906;9.140;2023-02-14T05:17:47;1004.59;;;7.94;46.37
45071;BME280;30836;48.906;9.140;2023-02-14T05:18:47;1004.59;;;7.95;46.25
45071;BME280;30836;48.906;9.140;2023-02-14T05:19:47;1004.55;;;7.94;46.31
45071;BME280;30836;48.906;9.140;2023-02-14T05:20:49;1004.57;;;7.94;46.29
45071;BME280;30836;48.906;9.140;2023-02-14T05:21:50;1004.53;;;7.96;46.28
45071;BME280;30836;48.906;9.140;2023-02-14T05:22:51;1004.51;;;7.98;46.28
45071;BME280;30836;48.906;9.140;2023-02-14T05:23:51;1004.51;;;8.00;46.26
45071;BME280;30836;48.906;9.140;2023-02-14T05:24:51;1004.47;;;8.01;46.26
45071;BME280;30836;48.906;9.140;2023-02-14T05:25:52;1004.49;;;7.99;46.36
45071;BME280;30836;48.906;9.140;2023-02-14T05:26:52;1004.49;;;7.95;46.47
45071;BME280;30836;48.906;9.140;2023-02-14T05:27:53;1004.51;;;7.94;46.55
45071;BME280;30836;48.906;9.140;2023-02-14T05:28:53;1004.51;;;7.94;46.48
45071;BME280;30836;48.906;9.140;2023-02-14T05:29:54;1004.55;;;7.94;46.45
45071;BME280;30836;48.906;9.140;2023-02-14T05:30:54;1004.53;;;7.95;46.41
45071;BME280;30836;48.906;9.140;2023-02-14T05:31:55;1004.55;;;7.95;46.36
45071;BME280;30836;48.906;9.140;2023-02-14T05:32:55;1004.53;;;7.95;46.43
45071;BME280;30836;48.906;9.140;2023-02-14T05:33:56;1004.53;;;7.96;46.35
45071;BME280;30836;48.906;9.140;2023-02-14T05:34:56;1004.53;;;7.97;46.34
45071;BME280;30836;48.906;9.140;2023-02-14T05:35:57;1004.51;;;7.98;46.32
45071;BME280;30836;48.906;9.140;2023-02-14T05:36:59;1004.49;;;8.01;46.22
45071;BME280;30836;48.906;9.140;2023-02-14T05:37:59;1004.49;;;8.04;46.06
45071;BME280;30836;48.906;9.140;2023-02-14T05:39:00;1004.51;;;8.06;46.06
45071;BME280;30836;48.906;9.140;2023-02-14T05:40:00;1004.55;;;8.09;46.01
45071;BME280;30836;48.906;9.140;2023-02-14T05:41:01;1004.53;;;8.11;46.01
45071;BME280;30836;48.906;9.140;2023-02-14T05:42:02;1004.55;;;8.14;45.97
45071;BME280;30836;48.906;9.140;2023-02-14T05:43:02;1004.55;;;8.16;45.95
45071;BME280;30836;48.906;9.140;2023-02-14T05:44:03;1004.55;;;8.17;45.90
45071;BME280;30836;48.906;9.140;2023-02-14T05:45:03;1004.55;;;8.18;45.89
45071;BME280;30836;48.906;9.140;2023-02-14T05:46:04;1004.59;;;8.17;45.93
45071;BME280;30836;48.906;9.140;2023-02-14T05:47:05;1004.61;;;8.15;45.97
45071;BME280;30836;48.906;9.140;2023-02-14T05:48:05;1004.61;;;8.13;46.12
45071;BME280;30836;48.906;9.140;2023-02-14T05:49:05;1004.61;;;8.13;46.04
45071;BME280;30836;48.906;9.140;2023-02-14T05:50:06;1004.63;;;8.14;46.02
45071;BME280;30836;48.906;9.140;2023-02-14T05:51:08;1004.63;;;8.14;45.94
45071;BME280;30836;48.906;9.140;2023-02-14T05:52:09;1004.65;;;8.15;45.89
45071;BME280;30836;48.906;9.140;2023-02-14T05:53:10;1004.63;;;8.15;45.90
45071;BME280;30836;48.906;9.140;2023-02-14T05:54:12;1004.65;;;8.14;45.99
45071;BME280;30836;48.906;9.140;2023-02-14T05:55:12;1004.65;;;8.14;45.98
45071;BME280;30836;48.906;9.140;2023-02-14T05:56:13;1004.65;;;8.14;45.95
45071;BME280;30836;48.906;9.140;2023-02-14T05:57:13;1004.65;;;8.15;45.95
45071;BME280;30836;48.906;9.140;2023-02-14T05:58:13;1004.67;;;8.16;45.88
45071;BME280;30836;48.906;9.140;2023-02-14T05:59:14;1004.68;;;8.18;45.81
45071;BME280;30836;48.906;9.140;2023-02-14T06:00:14;1004.70;;;8.21;45.70
45071;BME280;30836;48.906;9.140;2023-02-14T06:01:15;1004.72;;;8.23;45.64
45071;BME280;30836;48.906;9.140;2023-02-14T06:02:16;1004.70;;;8.25;45.65
45071;BME280;30836;48.906;9.140;2023-02-14T06:03:16;1004.70;;;8.26;45.62
45071;BME280;30836;48.906;9.140;2023-02-14T06:04:16;1004.72;;;8.27;45.64
45071;BME280;30836;48.906;9.140;2023-02-14T06:05:17;1004.72;;;8.28;45.62
45071;BME280;30836;48.906;9.140;2023-02-14T06:06:18;1004.74;;;8.28;45.51
45071;BME280;30836;48.906;9.140;2023-02-14T06:07:18;1004.74;;;8.26;45.57
45071;BME280;30836;48.906;9.140;2023-02-14T06:08:19;1004.78;;;8.23;45.66
45071;BME280;30836;48.906;9.140;2023-02-14T06:09:19;1004.78;;;8.23;45.69
45071;BME280;30836;48.906;9.140;2023-02-14T06:10:20;1004.74;;;8.21;45.83
45071;BME280;30836;48.906;9.140;2023-02-14T06:11:23;1004.74;;;8.19;45.88
45071;BME280;30836;48.906;9.140;2023-02-14T06:12:24;1004.76;;;8.25;45.62
45071;BME280;30836;48.906;9.140;2023-02-14T06:13:24;1004.78;;;8.38;45.18
45071;BME280;30836;48.906;9.140;2023-02-14T06:14:24;1004.80;;;8.53;44.88
45071;BME280;30836;48.906;9.140;2023-02-14T06:15:25;1004.76;;;8.66;44.61
45071;BME280;30836;48.906;9.140;2023-02-14T06:16:25;1004.76;;;8.77;44.42
45071;BME280;30836;48.906;9.140;2023-02-14T06:17:26;1004.76;;;8.86;44.25
45071;BME280;30836;48.906;9.140;2023-02-14T06:18:26;1004.76;;;8.94;43.99
45071;BME280;30836;48.906;9.140;2023-02-14T06:19:27;1004.78;;;9.01;43.78
45071;BME280;30836;48.906;9.140;2023-02-14T06:20:27;1004.82;;;9.07;43.68
45071;BME280;30836;48.906;9.140;2023-02-14T06:21:28;1004.80;;;9.13;43.54
45071;BME280;30836;48.906;9.140;2023-02-14T06:22:28;1004.82;;;9.18;43.40
45071;BME280;30836;48.906;9.140;2023-02-14T06:23:29;1004.80;;;9.21;43.35
45071;BME280;30836;48.906;9.140;2023-02-14T06:24:29;1004.82;;;9.24;43.32
45071;BME280;30836;48.906;9.140;2023-02-14T06:25:30;1004.82;;;9.26;43.28
45071;BME280;30836;48.906;9.140;2023-02-14T06:26:30;1004.82;;;9.26;43.26
45071;BME280;30836;48.906;9.140;2023-02-14T06:27:31;1004.82;;;9.26;43.24
45071;BME280;30836;48.906;9.140;2023-02-14T06:28:32;1004.80;;;9.26;43.25
45071;BME280;30836;48.906;9.140;2023-02-14T06:29:32;1004.80;;;9.26;43.26